Terminal Aerodrome Forecast
Issued by NWS

Home | Current Version | Previous Version | Text Only | Print | Product List | Glossary On
Versions: 1 2 3 4 5 6 7 8 9 10 11 12 13 14 15 16 17 18 19 20 21 22 23
000
FTUS41 KRLX 281700
TAFCKB
TAF
KCKB 281726Z 2818/2918 34010KT 6SM -RA BR OVC007
     FM290100 VRB03KT P6SM OVC003
     FM290600 VRB03KT P6SM OVC008
     FM291700 VRB03KT P6SM BKN035=

USA.gov is the U.S. government's official web portal to all federal, state and local government web resources and services.